Time;durP1;ratioP1;P1;durP2;ratioP2;P2;SDS_P1;SDS_P2;PMS_P1;PMS_P2;Temp;Humidity;BMP_temperature;BMP_pressure;BME280_temperature;BME280_humidity;BME280_pressure;Samples;Min_cycle;Max_cycle;Signal;HPM_P1;HPM_P2
2022/01/17 00:00:23;;;;;;;20.75;3.70;;;;;;;;;;5076943;28;20102;-69
2022/01/17 00:02:52;;;;;;;26.30;3.33;;;;;;;;;;5081158;28;20136;-69
2022/01/17 00:05:19;;;;;;;24.93;3.53;;;;;;;;;;5079137;28;20051;-69
2022/01/17 00:07:46;;;;;;;22.85;2.83;;;;;;;;;;5079881;28;20056;-69
2022/01/17 00:10:15;;;;;;;30.92;3.33;;;;;;;;;;5081186;28;20506;-69
2022/01/17 00:12:45;;;;;;;23.05;2.83;;;;;;;;;;5080605;28;21226;-69
2022/01/17 00:15:19;;;;;;;23.00;3.28;;;;;;;;;;5079857;28;20060;-69
2022/01/17 00:17:50;;;;;;;25.38;3.42;;;;;;;;;;5082768;28;20048;-69
2022/01/17 00:20:25;;;;;;;33.10;2.80;;;;;;;;;;5078340;28;20459;-69
2022/01/17 00:22:52;;;;;;;27.67;3.10;;;;;;;;;;5084288;28;20126;-69
2022/01/17 00:25:21;;;;;;;22.45;3.13;;;;;;;;;;5080812;28;20112;-68
2022/01/17 00:27:49;;;;;;;25.10;3.17;;;;;;;;;;5072743;28;20441;-68
2022/01/17 00:30:16;;;;;;;25.90;3.38;;;;;;;;;;5085554;28;20122;-68
2022/01/17 00:32:43;;;;;;;25.80;3.00;;;;;;;;;;5082272;28;20379;-68
2022/01/17 00:35:11;;;;;;;27.77;5.10;;;;;;;;;;5080671;28;20056;-68
2022/01/17 00:37:38;;;;;;;24.33;2.83;;;;;;;;;;5083445;28;20101;-68
2022/01/17 00:40:06;;;;;;;28.40;4.10;;;;;;;;;;5081323;28;20060;-68
2022/01/17 00:42:34;;;;;;;27.63;3.22;;;;;;;;;;5080148;28;20048;-68
2022/01/17 00:45:05;;;;;;;25.17;4.13;;;;;;;;;;5083490;28;20177;-68
2022/01/17 00:47:33;;;;;;;29.55;3.45;;;;;;;;;;5076781;28;20120;-68
2022/01/17 00:50:00;;;;;;;27.30;3.42;;;;;;;;;;5080106;28;20447;-68
2022/01/17 00:52:27;;;;;;;27.92;3.75;;;;;;;;;;5079572;28;20583;-68
2022/01/17 00:54:54;;;;;;;28.23;3.35;;;;;;;;;;5079171;28;20063;-68
2022/01/17 00:57:21;;;;;;;33.45;4.13;;;;;;;;;;5078660;28;20101;-68
2022/01/17 00:59:50;;;;;;;35.47;4.00;;;;;;;;;;5076702;28;20052;-68
2022/01/17 01:02:17;;;;;;;35.35;4.57;;;;;;;;;;5081546;28;20053;-68
2022/01/17 01:04:44;;;;;;;32.42;3.97;;;;;;;;;;5085842;28;20047;-68
2022/01/17 01:07:12;;;;;;;34.95;4.20;;;;;;;;;;5079399;28;20048;-69
2022/01/17 01:09:48;;;;;;;30.45;3.85;;;;;;;;;;5080601;28;20054;-69
2022/01/17 01:12:15;;;;;;;39.67;4.03;;;;;;;;;;5080353;28;20052;-69
2022/01/17 01:14:43;;;;;;;38.75;4.50;;;;;;;;;;5077385;28;20052;-69
2022/01/17 01:17:29;;;;;;;28.48;3.03;;;;;;;;;;5087343;28;20389;-69
2022/01/17 01:20:04;;;;;;;37.80;4.35;;;;;;;;;;5080890;28;20384;-69
2022/01/17 01:28:04;;;;;;;33.92;3.75;;;;;;;;;;5078257;28;20051;-69
2022/01/17 01:30:32;;;;;;;33.67;4.20;;;;;;;;;;5075788;28;20053;-69
2022/01/17 01:33:02;;;;;;;33.90;3.40;;;;;;;;;;5079043;28;20180;-69
2022/01/17 01:35:32;;;;;;;31.75;3.15;;;;;;;;;;5076565;28;20044;-69
2022/01/17 01:38:00;;;;;;;29.83;4.05;;;;;;;;;;5076455;28;20044;-69
2022/01/17 01:40:28;;;;;;;34.25;3.95;;;;;;;;;;5076851;28;20474;-69
2022/01/17 01:42:55;;;;;;;25.15;3.80;;;;;;;;;;5081495;28;20437;-69
2022/01/17 01:45:23;;;;;;;28.02;3.42;;;;;;;;;;5078040;28;20057;-69
2022/01/17 01:47:50;;;;;;;30.17;3.72;;;;;;;;;;5075856;28;20048;-69
2022/01/17 01:50:19;;;;;;;34.03;4.57;;;;;;;;;;5081716;28;20048;-69
2022/01/17 01:52:47;;;;;;;29.83;3.67;;;;;;;;;;5079335;28;20067;-69
2022/01/17 01:55:15;;;;;;;28.02;3.85;;;;;;;;;;5080002;28;20060;-69
2022/01/17 01:57:43;;;;;;;30.02;3.88;;;;;;;;;;5080868;28;20044;-69
2022/01/17 02:00:15;;;;;;;27.95;3.90;;;;;;;;;;5083332;28;20075;-69
2022/01/17 02:02:43;;;;;;;30.65;4.32;;;;;;;;;;5083393;28;20060;-69
2022/01/17 02:05:10;;;;;;;33.78;4.03;;;;;;;;;;5081339;28;20054;-69
2022/01/17 02:07:39;;;;;;;27.80;3.35;;;;;;;;;;5080575;28;20048;-69
2022/01/17 02:10:07;;;;;;;32.30;3.75;;;;;;;;;;5080379;28;20139;-69
2022/01/17 02:12:34;;;;;;;28.52;3.97;;;;;;;;;;5079098;28;20060;-69
2022/01/17 02:15:02;;;;;;;23.33;3.00;;;;;;;;;;5083539;28;20051;-69
2022/01/17 02:17:33;;;;;;;31.50;3.45;;;;;;;;;;5079142;28;20036;-69
2022/01/17 02:20:06;;;;;;;27.88;4.20;;;;;;;;;;5077480;28;20418;-69
2022/01/17 02:22:34;;;;;;;30.48;3.35;;;;;;;;;;5082561;28;20047;-69
2022/01/17 02:25:01;;;;;;;26.27;3.97;;;;;;;;;;5078658;28;20356;-69
2022/01/17 02:27:29;;;;;;;28.38;3.50;;;;;;;;;;5076717;28;20040;-69
2022/01/17 02:29:56;;;;;;;33.50;4.07;;;;;;;;;;5082398;28;20060;-69
2022/01/17 02:32:23;;;;;;;26.85;4.03;;;;;;;;;;5077938;28;20052;-69
2022/01/17 02:34:50;;;;;;;24.52;3.72;;;;;;;;;;5084293;28;20503;-69
2022/01/17 02:37:19;;;;;;;26.13;3.72;;;;;;;;;;5078171;28;20071;-69
2022/01/17 02:39:47;;;;;;;19.83;3.08;;;;;;;;;;5074215;28;20131;-69
2022/01/17 02:42:16;;;;;;;32.80;3.97;;;;;;;;;;5081176;28;20487;-69
2022/01/17 02:44:45;;;;;;;30.35;4.00;;;;;;;;;;5083436;28;20083;-69
2022/01/17 02:47:13;;;;;;;27.60;3.78;;;;;;;;;;5085704;28;20040;-69
2022/01/17 02:49:40;;;;;;;25.90;3.55;;;;;;;;;;5083838;28;20507;-69
2022/01/17 02:52:08;;;;;;;28.70;3.22;;;;;;;;;;5081705;28;20462;-69
2022/01/17 02:54:37;;;;;;;27.05;3.40;;;;;;;;;;5081760;28;20048;-69
2022/01/17 02:57:07;;;;;;;31.58;4.20;;;;;;;;;;5087505;28;20402;-70
2022/01/17 02:59:34;;;;;;;27.40;3.22;;;;;;;;;;5078698;28;20052;-69
2022/01/17 03:02:03;;;;;;;35.10;3.38;;;;;;;;;;5083416;28;20071;-69
2022/01/17 03:04:31;;;;;;;29.70;3.00;;;;;;;;;;5085409;28;20125;-69
2022/01/17 03:06:58;;;;;;;33.95;4.00;;;;;;;;;;5078202;28;20048;-69
2022/01/17 03:09:30;;;;;;;25.45;3.65;;;;;;;;;;5081849;28;20128;-69
2022/01/17 03:11:58;;;;;;;24.08;3.30;;;;;;;;;;5082393;28;20063;-69
2022/01/17 03:14:25;;;;;;;24.70;2.90;;;;;;;;;;5080206;28;20059;-69
2022/01/17 03:16:55;;;;;;;26.52;3.42;;;;;;;;;;5083365;28;20127;-69
2022/01/17 03:19:23;;;;;;;22.75;3.28;;;;;;;;;;5082427;28;20047;-69
2022/01/17 03:21:50;;;;;;;37.63;3.95;;;;;;;;;;5082605;28;20051;-69
2022/01/17 03:24:17;;;;;;;25.23;3.55;;;;;;;;;;5081965;28;20044;-69
2022/01/17 03:26:44;;;;;;;24.67;3.55;;;;;;;;;;5079137;28;20164;-69
2022/01/17 03:29:13;;;;;;;25.17;2.97;;;;;;;;;;5085891;28;20059;-69
2022/01/17 03:31:40;;;;;;;16.77;2.72;;;;;;;;;;5082258;28;20101;-69
2022/01/17 03:34:07;;;;;;;27.58;3.05;;;;;;;;;;5085659;28;20048;-69
2022/01/17 03:36:34;;;;;;;30.10;3.78;;;;;;;;;;5084427;28;20067;-69
2022/01/17 03:39:01;;;;;;;27.20;3.13;;;;;;;;;;5082057;28;20118;-69
2022/01/17 03:41:29;;;;;;;26.30;3.08;;;;;;;;;;5078123;28;20055;-69
2022/01/17 03:43:56;;;;;;;21.92;3.03;;;;;;;;;;5086626;28;20052;-69
2022/01/17 03:46:26;;;;;;;21.83;2.90;;;;;;;;;;5083080;28;20047;-69
2022/01/17 03:48:54;;;;;;;20.13;2.97;;;;;;;;;;5077108;28;20051;-69
2022/01/17 03:51:21;;;;;;;25.33;3.28;;;;;;;;;;5082363;28;20048;-69
2022/01/17 03:53:48;;;;;;;35.65;3.75;;;;;;;;;;5077270;28;20117;-69
2022/01/17 03:56:16;;;;;;;39.10;5.38;;;;;;;;;;5080118;28;20113;-69
2022/01/17 03:58:44;;;;;;;27.60;3.53;;;;;;;;;;5079892;28;20044;-69
2022/01/17 04:01:11;;;;;;;30.45;3.03;;;;;;;;;;5080248;28;20388;-69
2022/01/17 04:03:39;;;;;;;44.42;5.15;;;;;;;;;;5083456;28;20041;-69
2022/01/17 04:06:07;;;;;;;33.03;3.72;;;;;;;;;;5083202;28;20430;-69
2022/01/17 04:08:34;;;;;;;28.65;3.40;;;;;;;;;;5080954;28;20044;-69
2022/01/17 04:11:02;;;;;;;29.77;3.28;;;;;;;;;;5086547;28;20048;-69
2022/01/17 04:13:31;;;;;;;25.92;4.05;;;;;;;;;;5082941;28;20052;-69
2022/01/17 04:15:58;;;;;;;34.95;4.32;;;;;;;;;;5078942;28;20101;-68
2022/01/17 04:18:25;;;;;;;29.65;4.30;;;;;;;;;;5082989;28;20093;-68
2022/01/17 04:20:54;;;;;;;26.33;3.22;;;;;;;;;;5079331;28;20051;-68
2022/01/17 04:23:21;;;;;;;32.70;4.32;;;;;;;;;;5086593;28;20055;-68
2022/01/17 04:25:49;;;;;;;37.95;3.95;;;;;;;;;;5083328;28;20055;-69
2022/01/17 04:28:16;;;;;;;34.60;4.05;;;;;;;;;;5077698;28;20048;-69
2022/01/17 04:30:44;;;;;;;31.55;4.00;;;;;;;;;;5084661;28;20098;-69
2022/01/17 04:33:12;;;;;;;40.15;5.38;;;;;;;;;;5082100;28;20044;-69
2022/01/17 04:35:39;;;;;;;33.00;5.07;;;;;;;;;;5082883;28;20044;-69
2022/01/17 04:38:09;;;;;;;36.47;4.88;;;;;;;;;;5084600;28;20055;-69
2022/01/17 04:40:38;;;;;;;36.55;4.55;;;;;;;;;;5080535;28;20413;-69
2022/01/17 04:43:14;;;;;;;27.70;4.10;;;;;;;;;;5081774;28;20121;-69
2022/01/17 04:45:41;;;;;;;26.48;4.13;;;;;;;;;;5084448;28;20055;-68
2022/01/17 04:48:08;;;;;;;35.47;5.07;;;;;;;;;;5078838;28;20048;-69
2022/01/17 04:50:35;;;;;;;39.22;4.97;;;;;;;;;;5082380;28;20074;-69
2022/01/17 04:53:03;;;;;;;31.77;4.45;;;;;;;;;;5079933;28;20105;-69
2022/01/17 04:55:32;;;;;;;36.15;4.78;;;;;;;;;;5082665;28;20067;-69
2022/01/17 04:57:59;;;;;;;31.50;4.32;;;;;;;;;;5080473;28;20056;-69
2022/01/17 05:00:27;;;;;;;39.35;5.68;;;;;;;;;;5077068;28;21347;-69
2022/01/17 05:02:54;;;;;;;36.97;5.55;;;;;;;;;;5078627;28;20064;-69
2022/01/17 05:05:22;;;;;;;40.05;5.32;;;;;;;;;;5085872;28;20055;-69
2022/01/17 05:07:49;;;;;;;34.08;5.10;;;;;;;;;;5074940;28;20044;-69
2022/01/17 05:10:17;;;;;;;35.10;5.03;;;;;;;;;;5083304;28;20518;-69
2022/01/17 05:12:46;;;;;;;39.42;5.47;;;;;;;;;;5082348;28;20388;-69
2022/01/17 05:15:24;;;;;;;39.00;5.93;;;;;;;;;;5078105;28;20047;-69
2022/01/17 05:18:01;;;;;;;46.58;6.72;;;;;;;;;;5081251;28;20490;-69
2022/01/17 05:20:29;;;;;;;39.58;5.53;;;;;;;;;;5082816;28;20146;-69
2022/01/17 05:22:56;;;;;;;49.63;5.80;;;;;;;;;;5076081;28;20052;-69
2022/01/17 05:25:24;;;;;;;41.22;5.25;;;;;;;;;;5080982;28;20054;-69
2022/01/17 05:27:52;;;;;;;35.25;4.82;;;;;;;;;;5077987;28;20431;-69
2022/01/17 05:30:21;;;;;;;35.30;5.30;;;;;;;;;;5085353;28;20048;-69
2022/01/17 05:32:49;;;;;;;32.38;4.72;;;;;;;;;;5083528;28;20066;-69
2022/01/17 05:35:16;;;;;;;35.65;6.05;;;;;;;;;;5082849;28;20545;-69
2022/01/17 05:37:44;;;;;;;35.15;4.90;;;;;;;;;;5080452;28;20116;-69
2022/01/17 05:40:12;;;;;;;31.48;4.80;;;;;;;;;;5079466;28;20052;-69
2022/01/17 05:42:40;;;;;;;45.17;5.25;;;;;;;;;;5076939;28;20512;-69
2022/01/17 05:45:09;;;;;;;37.55;4.75;;;;;;;;;;5079061;28;20047;-69
2022/01/17 05:47:37;;;;;;;30.95;4.88;;;;;;;;;;5080528;28;20056;-69
2022/01/17 05:50:05;;;;;;;42.13;6.22;;;;;;;;;;5078418;28;20048;-69
2022/01/17 05:52:33;;;;;;;42.17;6.15;;;;;;;;;;5077654;28;20058;-69
2022/01/17 05:55:00;;;;;;;43.05;5.68;;;;;;;;;;5082619;28;20052;-69
2022/01/17 05:57:28;;;;;;;50.75;6.32;;;;;;;;;;5077340;28;20051;-69
2022/01/17 05:59:55;;;;;;;34.38;5.40;;;;;;;;;;5078285;28;20048;-69
2022/01/17 06:02:24;;;;;;;43.38;4.95;;;;;;;;;;5084138;28;20055;-69
2022/01/17 06:04:51;;;;;;;34.17;5.35;;;;;;;;;;5080078;28;20052;-69
2022/01/17 06:07:19;;;;;;;42.38;5.82;;;;;;;;;;5077982;28;20098;-69
2022/01/17 06:09:46;;;;;;;40.92;6.00;;;;;;;;;;5081199;28;20147;-69
2022/01/17 06:12:14;;;;;;;52.53;6.07;;;;;;;;;;5079671;28;20101;-69
2022/01/17 06:14:41;;;;;;;51.90;6.05;;;;;;;;;;5079191;28;20056;-69
2022/01/17 06:17:08;;;;;;;51.47;6.38;;;;;;;;;;5078243;28;20051;-69
2022/01/17 06:19:37;;;;;;;53.63;6.35;;;;;;;;;;5087759;28;20070;-69
2022/01/17 06:22:04;;;;;;;50.90;6.20;;;;;;;;;;5083857;28;20059;-69
2022/01/17 06:24:32;;;;;;;52.00;6.18;;;;;;;;;;5090738;28;20052;-69
2022/01/17 06:26:59;;;;;;;46.63;6.53;;;;;;;;;;5078817;28;20462;-69
2022/01/17 06:29:27;;;;;;;51.78;5.85;;;;;;;;;;5077557;28;21572;-69
2022/01/17 06:31:54;;;;;;;50.97;6.03;;;;;;;;;;5079386;28;20049;-69
2022/01/17 06:34:21;;;;;;;43.75;7.25;;;;;;;;;;5078383;28;20055;-69
2022/01/17 06:36:50;;;;;;;46.33;6.55;;;;;;;;;;5081308;28;20048;-68
2022/01/17 06:39:17;;;;;;;50.45;6.45;;;;;;;;;;5082667;28;20048;-68
2022/01/17 06:41:44;;;;;;;52.30;6.10;;;;;;;;;;5079650;28;20055;-69
2022/01/17 06:44:12;;;;;;;51.15;6.43;;;;;;;;;;5085608;28;20048;-69
2022/01/17 06:46:39;;;;;;;41.75;6.15;;;;;;;;;;5082716;28;20060;-69
2022/01/17 06:49:06;;;;;;;61.35;7.32;;;;;;;;;;5085677;28;20044;-69
2022/01/17 06:51:33;;;;;;;50.78;6.82;;;;;;;;;;5081572;28;20060;-69
2022/01/17 06:54:02;;;;;;;47.58;6.35;;;;;;;;;;5080395;28;20515;-69
2022/01/17 06:56:29;;;;;;;51.58;6.22;;;;;;;;;;5088426;28;20057;-69
2022/01/17 06:58:56;;;;;;;49.40;6.55;;;;;;;;;;5080147;28;20051;-69
2022/01/17 07:01:24;;;;;;;51.17;6.72;;;;;;;;;;5084472;28;20547;-69
2022/01/17 07:03:52;;;;;;;41.65;5.95;;;;;;;;;;5083688;28;20056;-69
2022/01/17 07:06:19;;;;;;;51.30;6.47;;;;;;;;;;5086849;28;20043;-69
2022/01/17 07:08:47;;;;;;;50.15;6.00;;;;;;;;;;5078686;28;20498;-69
2022/01/17 07:11:15;;;;;;;54.30;7.07;;;;;;;;;;5086722;28;20051;-69
2022/01/17 07:13:42;;;;;;;46.83;6.07;;;;;;;;;;5081705;28;20085;-69
2022/01/17 07:16:10;;;;;;;49.72;6.05;;;;;;;;;;5077617;28;20060;-69
2022/01/17 07:18:37;;;;;;;58.58;7.30;;;;;;;;;;5082755;28;20076;-69
2022/01/17 07:21:04;;;;;;;42.65;6.03;;;;;;;;;;5080217;28;20063;-69
2022/01/17 07:23:31;;;;;;;61.25;7.03;;;;;;;;;;5086163;28;20056;-69
2022/01/17 07:25:59;;;;;;;52.88;6.55;;;;;;;;;;5083143;28;20116;-69
2022/01/17 07:28:27;;;;;;;51.53;6.10;;;;;;;;;;5081984;28;20040;-69
2022/01/17 07:30:55;;;;;;;49.28;6.78;;;;;;;;;;5087392;28;20145;-69
2022/01/17 07:33:26;;;;;;;45.55;5.82;;;;;;;;;;5077459;28;20056;-69
2022/01/17 07:35:53;;;;;;;56.28;6.43;;;;;;;;;;5094362;28;20048;-69
2022/01/17 07:38:20;;;;;;;44.30;6.60;;;;;;;;;;5088400;28;20051;-69
2022/01/17 07:40:47;;;;;;;38.92;5.57;;;;;;;;;;5080593;28;20047;-69
2022/01/17 07:43:15;;;;;;;53.35;6.05;;;;;;;;;;5085288;28;20048;-69
2022/01/17 07:45:55;;;;;;;49.92;6.60;;;;;;;;;;5082609;28;20097;-69
2022/01/17 07:51:15;;;;;;;45.05;6.40;;;;;;;;;;5034469;28;20080;-69
2022/01/17 07:53:42;;;;;;;47.03;7.07;;;;;;;;;;5082309;28;20114;-69
2022/01/17 07:56:11;;;;;;;46.15;6.10;;;;;;;;;;5079428;28;20047;-69
2022/01/17 07:58:38;;;;;;;47.55;6.45;;;;;;;;;;5084887;28;20048;-69
2022/01/17 08:01:07;;;;;;;46.85;6.60;;;;;;;;;;5083115;28;20056;-69
2022/01/17 08:03:34;;;;;;;46.45;5.95;;;;;;;;;;5080114;28;20055;-69
2022/01/17 08:06:02;;;;;;;41.72;5.60;;;;;;;;;;5082784;28;20116;-69
2022/01/17 08:08:29;;;;;;;45.22;6.40;;;;;;;;;;5081159;28;20048;-69
2022/01/17 08:10:56;;;;;;;41.05;5.75;;;;;;;;;;5082821;28;20044;-69
2022/01/17 08:13:23;;;;;;;48.80;7.60;;;;;;;;;;5083654;28;20040;-69
2022/01/17 08:15:50;;;;;;;41.45;5.55;;;;;;;;;;5076951;28;20732;-69
2022/01/17 08:18:19;;;;;;;38.70;5.35;;;;;;;;;;5083778;28;20052;-69
2022/01/17 08:20:46;;;;;;;46.10;6.32;;;;;;;;;;5085983;28;20063;-69
2022/01/17 08:23:13;;;;;;;45.42;6.07;;;;;;;;;;5083272;28;20632;-69
2022/01/17 08:25:41;;;;;;;57.75;7.20;;;;;;;;;;5086250;28;20056;-69
2022/01/17 08:28:08;;;;;;;48.60;6.43;;;;;;;;;;5080115;28;20052;-69
2022/01/17 08:30:35;;;;;;;41.38;6.15;;;;;;;;;;5082067;28;20138;-69
2022/01/17 08:33:02;;;;;;;45.28;6.47;;;;;;;;;;5084247;28;20067;-69
2022/01/17 08:35:31;;;;;;;50.58;5.68;;;;;;;;;;5081444;28;20080;-69
2022/01/17 08:37:59;;;;;;;49.03;6.25;;;;;;;;;;5085631;28;20051;-69
2022/01/17 08:40:26;;;;;;;50.28;6.20;;;;;;;;;;5084759;28;20044;-69
2022/01/17 08:42:54;;;;;;;51.78;6.78;;;;;;;;;;5075275;28;20067;-69
2022/01/17 08:45:23;;;;;;;46.88;6.28;;;;;;;;;;5089018;28;20091;-69
2022/01/17 08:47:52;;;;;;;60.20;6.93;;;;;;;;;;5084255;28;20059;-69
2022/01/17 08:50:20;;;;;;;42.55;6.95;;;;;;;;;;5081288;28;20094;-69
2022/01/17 08:52:48;;;;;;;48.72;6.18;;;;;;;;;;5080999;28;20056;-69
2022/01/17 08:55:16;;;;;;;53.42;6.25;;;;;;;;;;5080676;28;20060;-69
2022/01/17 08:57:44;;;;;;;49.75;6.45;;;;;;;;;;5088274;28;20498;-69
2022/01/17 09:00:13;;;;;;;50.20;7.45;;;;;;;;;;5072358;28;20122;-69
2022/01/17 09:02:40;;;;;;;45.55;6.95;;;;;;;;;;5077080;28;21126;-69
2022/01/17 09:05:07;;;;;;;46.50;6.68;;;;;;;;;;5083434;28;20052;-69
2022/01/17 09:07:35;;;;;;;54.92;7.72;;;;;;;;;;5082161;28;20048;-69
2022/01/17 09:10:03;;;;;;;49.88;7.90;;;;;;;;;;5073366;28;20940;-70
2022/01/17 09:12:30;;;;;;;49.35;6.43;;;;;;;;;;5082777;28;20044;-69
2022/01/17 09:14:59;;;;;;;51.95;7.53;;;;;;;;;;5077245;28;20064;-69
2022/01/17 09:17:26;;;;;;;60.17;7.13;;;;;;;;;;5077574;28;20048;-69
2022/01/17 09:19:53;;;;;;;58.10;7.45;;;;;;;;;;5085586;28;20058;-69
2022/01/17 09:22:20;;;;;;;54.78;7.32;;;;;;;;;;5086126;28;20047;-69
2022/01/17 09:24:47;;;;;;;52.85;6.70;;;;;;;;;;5083075;28;20052;-69
2022/01/17 09:27:16;;;;;;;46.17;6.80;;;;;;;;;;5088845;28;20836;-69
2022/01/17 09:29:44;;;;;;;58.42;8.18;;;;;;;;;;5075228;28;20054;-69
2022/01/17 09:32:12;;;;;;;62.55;8.40;;;;;;;;;;5078793;28;20060;-69
2022/01/17 09:34:40;;;;;;;55.25;7.85;;;;;;;;;;5077705;28;20048;-69
2022/01/17 09:37:08;;;;;;;45.33;6.72;;;;;;;;;;5078906;28;20124;-69
2022/01/17 09:39:35;;;;;;;51.75;7.70;;;;;;;;;;5079516;28;20070;-69
2022/01/17 09:42:02;;;;;;;48.95;7.45;;;;;;;;;;5078656;28;20668;-69
2022/01/17 09:44:31;;;;;;;52.13;7.45;;;;;;;;;;5080743;28;20504;-69
2022/01/17 09:46:58;;;;;;;54.75;7.82;;;;;;;;;;5082439;28;20051;-69
2022/01/17 09:49:33;;;;;;;52.95;7.75;;;;;;;;;;5077406;28;20036;-69
2022/01/17 09:54:45;;;;;;;62.75;7.88;;;;;;;;;;5064517;28;20102;-70
2022/01/17 09:57:13;;;;;;;53.85;8.07;;;;;;;;;;5079162;28;20063;-69
2022/01/17 09:59:42;;;;;;;58.58;8.60;;;;;;;;;;5079757;28;20245;-69
2022/01/17 10:02:10;;;;;;;64.53;8.57;;;;;;;;;;5080113;28;20072;-69
2022/01/17 10:04:38;;;;;;;55.05;8.38;;;;;;;;;;5075700;28;20048;-69
2022/01/17 10:07:07;;;;;;;59.22;8.57;;;;;;;;;;5084239;28;20059;-69
2022/01/17 10:09:35;;;;;;;57.65;8.52;;;;;;;;;;5084573;28;20066;-69
2022/01/17 10:12:03;;;;;;;65.68;8.65;;;;;;;;;;5081731;28;20056;-69
2022/01/17 10:14:35;;;;;;;59.90;8.65;;;;;;;;;;5079503;28;20044;-69
2022/01/17 10:17:04;;;;;;;59.20;8.48;;;;;;;;;;5081083;28;20050;-70
2022/01/17 10:19:31;;;;;;;66.05;8.52;;;;;;;;;;5095123;28;20053;-69
2022/01/17 10:21:59;;;;;;;60.67;9.35;;;;;;;;;;5088373;28;20839;-69
2022/01/17 10:24:35;;;;;;;59.28;9.20;;;;;;;;;;5081529;28;20070;-69
2022/01/17 10:35:19;;;;;;;55.40;8.88;;;;;;;;;;5078329;28;20121;-69
2022/01/17 10:37:58;;;;;;;61.75;9.52;;;;;;;;;;5079662;28;20053;-69
2022/01/17 10:40:25;;;;;;;74.03;11.40;;;;;;;;;;5081225;28;20048;-69
2022/01/17 10:42:55;;;;;;;61.22;9.25;;;;;;;;;;5079624;28;20063;-69
2022/01/17 10:45:23;;;;;;;60.30;9.70;;;;;;;;;;5083843;28;20056;-69
2022/01/17 10:47:53;;;;;;;66.22;8.70;;;;;;;;;;5077857;28;20139;-69
2022/01/17 10:50:21;;;;;;;68.15;9.23;;;;;;;;;;5078721;28;20048;-69
2022/01/17 10:52:50;;;;;;;62.35;9.13;;;;;;;;;;5086297;28;20512;-69
2022/01/17 10:55:19;;;;;;;62.63;8.90;;;;;;;;;;5078803;28;20055;-69
2022/01/17 10:57:47;;;;;;;74.50;9.65;;;;;;;;;;5079881;28;20096;-69
2022/01/17 11:00:16;;;;;;;68.65;9.73;;;;;;;;;;5079073;28;20623;-69
2022/01/17 11:02:44;;;;;;;60.50;9.50;;;;;;;;;;5079491;28;20045;-69
2022/01/17 11:05:14;;;;;;;67.78;9.80;;;;;;;;;;5078976;28;20051;-69
2022/01/17 11:07:42;;;;;;;69.60;10.55;;;;;;;;;;5086711;28;20432;-69
2022/01/17 11:10:17;;;;;;;73.20;10.75;;;;;;;;;;5084446;28;20052;-69
2022/01/17 11:12:45;;;;;;;58.92;9.82;;;;;;;;;;5084674;28;20105;-69
2022/01/17 11:15:13;;;;;;;67.50;10.00;;;;;;;;;;5080038;28;20051;-69
2022/01/17 11:17:47;;;;;;;62.47;10.32;;;;;;;;;;5084019;28;20056;-69
2022/01/17 11:20:16;;;;;;;69.93;9.60;;;;;;;;;;5090763;28;20131;-69
2022/01/17 11:22:44;;;;;;;54.70;9.48;;;;;;;;;;5082812;28;20110;-69
2022/01/17 11:25:12;;;;;;;68.53;10.43;;;;;;;;;;5087008;28;20052;-69
2022/01/17 11:27:40;;;;;;;62.50;9.40;;;;;;;;;;5082543;28;20103;-69
2022/01/17 11:30:08;;;;;;;58.10;9.55;;;;;;;;;;5082187;28;20483;-69
2022/01/17 11:32:35;;;;;;;71.35;10.32;;;;;;;;;;5079638;28;20098;-69
2022/01/17 11:35:03;;;;;;;65.80;10.63;;;;;;;;;;5080384;28;20136;-69
2022/01/17 11:37:33;;;;;;;68.75;9.80;;;;;;;;;;5081489;28;20135;-69
2022/01/17 11:40:01;;;;;;;71.72;10.73;;;;;;;;;;5090431;28;20407;-69
2022/01/17 11:42:37;;;;;;;67.35;10.23;;;;;;;;;;5080482;28;20104;-69
2022/01/17 11:45:06;;;;;;;71.47;10.45;;;;;;;;;;5082113;28;20055;-69
2022/01/17 11:47:47;;;;;;;62.47;10.55;;;;;;;;;;5083721;28;20044;-69
2022/01/17 11:50:35;;;;;;;72.47;10.80;;;;;;;;;;5081186;28;20072;-70
2022/01/17 11:53:24;;;;;;;76.38;11.18;;;;;;;;;;5074881;28;20040;-69
2022/01/17 11:55:51;;;;;;;64.32;10.15;;;;;;;;;;5083546;28;20048;-69
2022/01/17 11:58:21;;;;;;;87.45;12.15;;;;;;;;;;5086458;28;20051;-69
2022/01/17 12:00:48;;;;;;;75.90;11.07;;;;;;;;;;5078319;28;20043;-69
2022/01/17 12:03:19;;;;;;;66.88;10.20;;;;;;;;;;5080517;28;20060;-69
2022/01/17 12:05:47;;;;;;;71.90;10.82;;;;;;;;;;5080048;28;20068;-69
2022/01/17 12:08:20;;;;;;;68.82;9.95;;;;;;;;;;5084724;28;20061;-69
2022/01/17 12:10:52;;;;;;;69.68;11.52;;;;;;;;;;5082541;28;20048;-70
2022/01/17 12:13:34;;;;;;;76.75;10.68;;;;;;;;;;5084338;28;20036;-70
2022/01/17 12:16:07;;;;;;;71.47;10.17;;;;;;;;;;5077990;28;20534;-70
2022/01/17 12:18:35;;;;;;;77.70;10.52;;;;;;;;;;5079198;28;20425;-70
2022/01/17 12:21:19;;;;;;;70.53;10.30;;;;;;;;;;5082147;28;20040;-70
2022/01/17 12:23:48;;;;;;;72.30;10.88;;;;;;;;;;5078900;28;20051;-70
2022/01/17 12:26:28;;;;;;;80.40;12.55;;;;;;;;;;5083020;28;20059;-72
2022/01/17 12:28:56;;;;;;;71.32;10.30;;;;;;;;;;5083525;28;20048;-71
2022/01/17 12:31:39;;;;;;;75.55;10.55;;;;;;;;;;5078562;28;20053;-70
2022/01/17 12:34:18;;;;;;;74.78;11.23;;;;;;;;;;5082305;28;20398;-73
2022/01/17 12:36:46;;;;;;;78.43;11.15;;;;;;;;;;5083609;28;20067;-70
2022/01/17 12:39:16;;;;;;;76.22;10.73;;;;;;;;;;5079808;28;20059;-70
2022/01/17 12:41:44;;;;;;;78.07;11.43;;;;;;;;;;5082794;28;20537;-70
2022/01/17 12:44:16;;;;;;;73.45;10.73;;;;;;;;;;5081416;28;20064;-70
2022/01/17 12:46:43;;;;;;;72.13;11.63;;;;;;;;;;5079633;28;20063;-70
2022/01/17 12:49:11;;;;;;;83.43;11.80;;;;;;;;;;5076609;28;20114;-70
2022/01/17 12:51:40;;;;;;;73.82;11.23;;;;;;;;;;5087344;28;20068;-70
2022/01/17 12:54:11;;;;;;;85.05;11.30;;;;;;;;;;5079993;28;20060;-70
2022/01/17 12:56:42;;;;;;;77.10;11.60;;;;;;;;;;5084242;28;20052;-70
2022/01/17 12:59:10;;;;;;;78.45;11.80;;;;;;;;;;5081385;28;20101;-70
2022/01/17 13:01:42;;;;;;;81.07;11.88;;;;;;;;;;5079869;28;20044;-70
2022/01/17 13:04:11;;;;;;;80.05;11.15;;;;;;;;;;5082561;28;20608;-70
2022/01/17 13:06:39;;;;;;;81.93;13.07;;;;;;;;;;5081577;28;20052;-70
2022/01/17 13:09:09;;;;;;;64.68;11.07;;;;;;;;;;5085235;28;20055;-70
2022/01/17 13:11:39;;;;;;;86.93;12.07;;;;;;;;;;5080962;28;20044;-70
2022/01/17 13:14:07;;;;;;;97.95;12.52;;;;;;;;;;5080712;28;20075;-70
2022/01/17 13:16:35;;;;;;;72.72;10.30;;;;;;;;;;5079728;28;20477;-70
2022/01/17 13:19:03;;;;;;;78.60;10.88;;;;;;;;;;5084826;28;20100;-70
2022/01/17 13:21:30;;;;;;;84.53;11.75;;;;;;;;;;5078411;28;20049;-70
2022/01/17 13:24:01;;;;;;;83.93;12.20;;;;;;;;;;5085821;28;20092;-70
2022/01/17 13:26:30;;;;;;;79.35;11.65;;;;;;;;;;5083231;28;20059;-70
2022/01/17 13:28:59;;;;;;;82.47;12.90;;;;;;;;;;5073052;28;21412;-70
2022/01/17 13:31:29;;;;;;;75.72;11.93;;;;;;;;;;5078499;28;20047;-70
2022/01/17 13:33:57;;;;;;;81.75;12.52;;;;;;;;;;5079143;28;20048;-70
2022/01/17 13:36:28;;;;;;;80.32;12.40;;;;;;;;;;5076033;28;20453;-70
2022/01/17 13:39:04;;;;;;;84.15;12.63;;;;;;;;;;5083481;28;20052;-70
2022/01/17 13:41:32;;;;;;;75.68;11.95;;;;;;;;;;5082025;28;20050;-70
2022/01/17 13:43:59;;;;;;;77.30;11.23;;;;;;;;;;5080205;28;20056;-70
2022/01/17 13:46:26;;;;;;;77.70;10.55;;;;;;;;;;5080926;28;20052;-70
2022/01/17 13:48:55;;;;;;;75.75;12.45;;;;;;;;;;5079403;28;20043;-70
2022/01/17 13:51:23;;;;;;;87.13;11.73;;;;;;;;;;5080969;28;20045;-70
2022/01/17 13:53:50;;;;;;;75.32;12.52;;;;;;;;;;5083418;28;20514;-70
2022/01/17 13:56:18;;;;;;;80.20;12.20;;;;;;;;;;5078407;28;20060;-70
2022/01/17 13:58:46;;;;;;;71.60;12.75;;;;;;;;;;5075454;28;20143;-70
2022/01/17 14:01:15;;;;;;;75.70;11.98;;;;;;;;;;5077256;28;20150;-70
2022/01/17 14:03:44;;;;;;;80.88;12.60;;;;;;;;;;5083024;28;20056;-70
2022/01/17 14:06:14;;;;;;;86.53;12.68;;;;;;;;;;5079071;28;20060;-70
2022/01/17 14:08:42;;;;;;;85.50;13.43;;;;;;;;;;5080546;28;20108;-70
2022/01/17 14:11:10;;;;;;;77.30;12.95;;;;;;;;;;5084350;28;20056;-69
2022/01/17 14:13:37;;;;;;;90.65;13.82;;;;;;;;;;5078812;28;20056;-70
2022/01/17 14:16:26;;;;;;;86.00;14.02;;;;;;;;;;5075005;28;20071;-70
2022/01/17 14:18:54;;;;;;;80.50;11.50;;;;;;;;;;5071208;28;20475;-70
2022/01/17 14:21:30;;;;;;;80.60;13.07;;;;;;;;;;5083885;28;20048;-70
2022/01/17 14:24:07;;;;;;;78.85;11.90;;;;;;;;;;5076977;28;20056;-71
2022/01/17 14:26:35;;;;;;;81.28;12.05;;;;;;;;;;5084113;28;20049;-70
2022/01/17 14:29:02;;;;;;;85.55;12.93;;;;;;;;;;5084311;28;20047;-70
2022/01/17 14:31:32;;;;;;;83.50;12.43;;;;;;;;;;5078890;28;20141;-70
2022/01/17 14:34:09;;;;;;;80.38;12.20;;;;;;;;;;5083326;28;20056;-70
2022/01/17 14:36:38;;;;;;;82.32;12.20;;;;;;;;;;5079212;28;20801;-70
2022/01/17 14:39:06;;;;;;;87.45;12.98;;;;;;;;;;5079952;28;20069;-71
2022/01/17 14:41:35;;;;;;;81.22;12.70;;;;;;;;;;5079660;28;20041;-70
2022/01/17 14:44:04;;;;;;;78.05;11.60;;;;;;;;;;5083176;28;20483;-70
2022/01/17 14:46:31;;;;;;;82.57;12.25;;;;;;;;;;5083422;28;20057;-70
2022/01/17 14:48:58;;;;;;;78.88;11.57;;;;;;;;;;5075030;28;20114;-70
2022/01/17 14:51:28;;;;;;;83.25;12.43;;;;;;;;;;5082055;28;20514;-70
2022/01/17 14:53:57;;;;;;;84.68;13.35;;;;;;;;;;5083067;28;20125;-70